Pilot Boat Polaris — POLARIS — position and weather

sailwx.info

Track history (hours):
 
Tides and Currents Weather Stations Pressure Air Temp Water Temp Dewpoint Dewpoint Depression Visibility Wind Speed Wind Dir Waves Ship Positions

Pilot Boat Polaris

Last reported at 2018-Jun-22 01:02 UTC. Time now 2018-Jun-22 09:14 UTC.
Position N 33°45' W 118°13'.

Length 16 m; draft 1.5 m.

Type: Pilot. MMSI: 338037842.

Date/timePositionNaut miles runAvg speedWind from/ knotsBaromVisibWave heightAir tempDewpointWater temp
2018-Jun-22 01:02N 33°45' W 118°13'0 0.0
2018-Jun-21 23:23N 33°45' W 118°13'0 0.0
2018-Jun-21 22:37N 33°45' W 118°13'0 0.0
2018-Jun-21 21:41N 33°45' W 118°13'0 0.0
2018-Jun-21 20:06N 33°45' W 118°13'0 0.0
2018-Jun-21 20:00N 33°45' W 118°13'0 0.0
2018-Jun-21 02:52N 33°45' W 118°13'0 0.0
2018-Jun-21 00:34N 33°45' W 118°13'0 0.0
2018-Jun-20 22:39N 33°45' W 118°13'0 0.0
2018-Jun-20 22:03N 33°45' W 118°13'0 0.0
2018-Jun-20 22:00N 33°45' W 118°13'0 0.0
2018-Jun-20 13:57N 33°45' W 118°13'0 0.0
2018-Jun-20 13:30N 33°45' W 118°13'0 0.0
2018-Jun-20 02:59N 33°45' W 118°13'0 0.0
2018-Jun-20 02:28N 33°45' W 118°13'0 0.0
2018-Jun-20 01:54N 33°45' W 118°13'0 0.0
2018-Jun-20 01:30N 33°45' W 118°13'0 0.0
2018-Jun-20 00:19N 33°45' W 118°13'0 0.0
2018-Jun-19 21:00N 33°45' W 118°13'0 0.0
2018-Jun-19 20:20N 33°45' W 118°13'0 0.0
2018-Jun-19 19:21N 33°45' W 118°13'0 0.0
2018-Jun-19 19:00N 33°45' W 118°13'0 0.0
2018-Jun-19 17:39N 33°45' W 118°13'0 0.0
2018-Jun-19 17:22N 33°45' W 118°13'0 0.0
2018-Jun-19 16:58N 33°45' W 118°13'0 0.0
2018-Jun-19 16:28N 33°45' W 118°13'0 0.0
2018-Jun-18 22:57N 33°45' W 118°13'0 0.0
2018-Jun-18 22:24N 33°45' W 118°13'0 0.0
2018-Jun-18 21:59N 33°45' W 118°13'0 0.0
2018-Jun-18 21:25N 33°45' W 118°13'0 0.0
2018-Jun-18 20:59N 33°45' W 118°13'0 0.0
2018-Jun-18 20:30N 33°45' W 118°13'0 0.0
2018-Jun-18 19:32N 33°45' W 118°13'0 0.0
2018-Jun-18 19:30N 33°45' W 118°13'0 0.0
2018-Jun-18 18:00N 33°45' W 118°13'0 0.0
2018-Jun-18 17:22N 33°45' W 118°13'0 0.0
2018-Jun-18 16:58N 33°45' W 118°13'0 0.0
2018-Jun-18 16:22N 33°45' W 118°13'0 0.0
2018-Jun-18 16:00N 33°45' W 118°13'0 0.0
2018-Jun-18 14:37N 33°45' W 118°13'0 0.0
2018-Jun-18 14:19N 33°45' W 118°13'0 0.0
2018-Jun-18 11:00N 33°45' W 118°13'0 0.0
2018-Jun-18 06:52N 33°45' W 118°13'0 0.0
2018-Jun-18 03:03N 33°45' W 118°13'0 0.0
2018-Jun-18 02:57N 33°45' W 118°13'0 0.0
2018-Jun-18 01:36N 33°45' W 118°13'0 0.0
2018-Jun-18 01:28N 33°45' W 118°13'0 0.0
2018-Jun-18 00:55N 33°45' W 118°13'0 0.0
2018-Jun-18 00:28N 33°45' W 118°13'0 0.0
2018-Jun-17 23:54N 33°45' W 118°13'0 0.0
2018-Jun-17 23:28N 33°45' W 118°13'0 0.0
2018-Jun-17 22:55N 33°45' W 118°13'0 0.0
2018-Jun-17 22:27N 33°45' W 118°13'0 0.0
2018-Jun-17 18:08N 33°45' W 118°13'0 0.0
2018-Jun-17 17:50N 33°45' W 118°13'0 0.0
2018-Jun-17 16:33N 33°45' W 118°13'0 0.0
2018-Jun-17 16:10N 33°45' W 118°13'0 0.0
2018-Jun-17 15:53N 33°45' W 118°13'0 0.0
2018-Jun-17 15:22N 33°45' W 118°13'0 0.0
2018-Jun-17 14:56N 33°45' W 118°13'0 0.0
2018-Jun-17 07:21N 33°45' W 118°13'1 0.1
2018-Jun-17 02:57N 33°44' W 118°13'0 0.5
2018-Jun-17 02:30N 33°44' W 118°12'3 6.0
2018-Jun-17 02:00N 33°42' W 118°11'4 7.2
2018-Jun-17 01:31N 33°45' W 118°13'0 0.3
2018-Jun-17 00:59N 33°45' W 118°13'0 0.0
2018-Jun-17 00:30N 33°45' W 118°13'0 0.8
2018-Jun-17 00:01N 33°45' W 118°13'2 3.5
2018-Jun-16 23:30N 33°44' W 118°12'1 1.8
2018-Jun-16 23:00N 33°43' W 118°11'2 4.5
2018-Jun-16 22:30N 33°45' W 118°13'0 0.0
2018-Jun-16 19:59N 33°45' W 118°13'0 0.0
2018-Jun-16 19:29N 33°45' W 118°13'0 0.0
2018-Jun-16 18:58N 33°45' W 118°13'0 0.0
2018-Jun-16 18:30N 33°45' W 118°13'0 0.0
2018-Jun-16 17:59N 33°45' W 118°13'0 0.0
2018-Jun-16 17:30N 33°45' W 118°13'0 0.0
2018-Jun-16 16:48N 33°45' W 118°13'0 0.0
2018-Jun-16 16:25N 33°45' W 118°13'0 0.0
2018-Jun-16 16:00N 33°45' W 118°13'0 0.0
2018-Jun-16 15:16N 33°45' W 118°13'0 0.0
2018-Jun-16 15:00N 33°45' W 118°13'0 0.0
2018-Jun-16 14:26N 33°45' W 118°13'0 0.0
2018-Jun-16 14:00N 33°45' W 118°13'0 0.0
2018-Jun-16 13:30N 33°45' W 118°13'0 0.0
2018-Jun-16 12:59N 33°45' W 118°13'0 0.0
2018-Jun-16 12:27N 33°45' W 118°13'0 0.0
2018-Jun-16 11:58N 33°45' W 118°13'0 0.0
2018-Jun-16 11:29N 33°45' W 118°13'0 0.0
2018-Jun-16 10:57N 33°45' W 118°13'0 0.0
2018-Jun-16 07:50N 33°45' W 118°13'0 0.0
2018-Jun-16 07:28N 33°45' W 118°13'0 0.0
2018-Jun-16 07:00N 33°45' W 118°13'0 0.0
2018-Jun-16 01:56N 33°45' W 118°13'0 0.0
2018-Jun-16 01:30N 33°45' W 118°13'0 0.0
2018-Jun-16 01:00N 33°45' W 118°13'0 0.0
2018-Jun-16 00:29N 33°45' W 118°13'0 0.0
2018-Jun-16 00:00N 33°45' W 118°13'0 0.0
2018-Jun-15 23:30N 33°45' W 118°13'0 0.0
2018-Jun-15 23:00N 33°45' W 118°13'0 0.0
2018-Jun-15 22:29N 33°45' W 118°13'0 0.0
2018-Jun-15 21:58N 33°45' W 118°13'0 0.0
2018-Jun-15 21:24N 33°45' W 118°13'0 0.0
2018-Jun-15 20:58N 33°45' W 118°13'0 0.0
2018-Jun-15 20:30N 33°45' W 118°13'0 0.0
2018-Jun-15 16:59N 33°45' W 118°13'0 0.0
2018-Jun-15 15:40N 33°45' W 118°13'0 0.0
2018-Jun-15 15:28N 33°45' W 118°13'0 0.0
2018-Jun-15 12:28N 33°45' W 118°13'0 0.0
2018-Jun-15 10:46N 33°45' W 118°13'0 0.0
2018-Jun-15 01:52N 33°45' W 118°13'0 0.0
2018-Jun-15 01:27N 33°45' W 118°13'0 0.0
2018-Jun-15 00:47N 33°45' W 118°13'0 0.0
2018-Jun-15 00:29N 33°45' W 118°13'0 0.0
2018-Jun-15 00:00N 33°45' W 118°13'0 0.0
2018-Jun-14 23:28N 33°45' W 118°13'0 0.0
2018-Jun-14 23:00N 33°45' W 118°13'0 0.0
2018-Jun-14 22:20N 33°45' W 118°13'0 0.0
2018-Jun-14 22:00N 33°45' W 118°13'0 0.0
2018-Jun-14 21:30N 33°45' W 118°13'0 0.0
2018-Jun-14 20:54N 33°45' W 118°13'0 0.0
2018-Jun-14 20:30N 33°45' W 118°13'0 0.0
2018-Jun-14 19:53N 33°45' W 118°13'0 0.0
2018-Jun-14 16:01N 33°45' W 118°13'0 1.4
2018-Jun-14 16:00N 33°45' W 118°13'3 4.5
2018-Jun-14 15:18N 33°44' W 118°17'3 7.8
2018-Jun-14 14:59N 33°44' W 118°13'1 1.3
2018-Jun-14 14:06N 33°45' W 118°13'0 0.0
2018-Jun-14 13:49N 33°45' W 118°13'0 0.0
2018-Jun-14 13:24N 33°45' W 118°13'0 0.0
2018-Jun-14 10:37N 33°45' W 118°13'0 0.0
2018-Jun-14 05:20N 33°45' W 118°13'0 0.0
2018-Jun-14 03:35N 33°45' W 118°13'0 0.0
2018-Jun-14 03:21N 33°45' W 118°13'0 0.0
2018-Jun-14 03:01N 33°45' W 118°13'0 0.0
2018-Jun-14 01:09N 33°45' W 118°13'0 0.0
2018-Jun-14 01:00N 33°45' W 118°13'0 0.0
2018-Jun-14 00:29N 33°45' W 118°13'0 0.0
2018-Jun-13 23:58N 33°45' W 118°13'0 0.0
2018-Jun-13 23:30N 33°45' W 118°13'0 0.0
2018-Jun-13 23:00N 33°45' W 118°13'0 0.0
2018-Jun-13 22:24N 33°45' W 118°13'0 0.0
2018-Jun-13 21:59N 33°45' W 118°13'0 0.0
2018-Jun-13 21:29N 33°45' W 118°13'0 0.0
2018-Jun-13 20:58N 33°45' W 118°13'0 0.0
2018-Jun-13 20:30N 33°45' W 118°13'0 0.0
2018-Jun-13 19:57N 33°45' W 118°13'0 0.0
2018-Jun-13 19:30N 33°45' W 118°13'0 0.0
2018-Jun-13 18:58N 33°45' W 118°13'0 0.0
2018-Jun-13 18:29N 33°45' W 118°13'0 0.0
2018-Jun-13 18:00N 33°45' W 118°13'0 0.0
2018-Jun-13 17:12N 33°45' W 118°13'0 0.0
2018-Jun-13 16:01N 33°45' W 118°13'0 0.0
2018-Jun-13 15:57N 33°45' W 118°13'0 0.0
2018-Jun-13 15:31N 33°45' W 118°13'0 0.0
2018-Jun-13 12:28N 33°45' W 118°13'0 0.0
2018-Jun-13 12:00N 33°45' W 118°13'0 0.0
2018-Jun-13 11:30N 33°45' W 118°13'0 0.0
2018-Jun-13 11:00N 33°45' W 118°13'0 0.0
2018-Jun-13 10:24N 33°45' W 118°13'0 0.0
2018-Jun-13 09:53N 33°45' W 118°13'0 0.0
2018-Jun-13 09:23N 33°45' W 118°13'0 0.0
2018-Jun-13 08:57N 33°45' W 118°13'0 0.0
2018-Jun-13 08:26N 33°45' W 118°13'0 0.0
2018-Jun-13 07:48N 33°45' W 118°13'0 0.0
2018-Jun-13 07:18N 33°45' W 118°13'0 0.0
2018-Jun-13 04:08N 33°45' W 118°13'0 0.0
2018-Jun-13 03:39N 33°45' W 118°13'0 0.0
2018-Jun-13 03:19N 33°45' W 118°13'0 0.0
2018-Jun-13 02:53N 33°45' W 118°13'0 0.0
2018-Jun-13 02:25N 33°45' W 118°13'0 0.0
2018-Jun-13 01:58N 33°45' W 118°13'0 0.0
2018-Jun-13 01:23N 33°45' W 118°13'0 0.0
2018-Jun-13 00:58N 33°45' W 118°13'0 0.0
2018-Jun-13 00:18N 33°45' W 118°13'0 0.0
2018-Jun-12 23:53N 33°45' W 118°13'0 0.0
2018-Jun-12 23:29N 33°45' W 118°13'0 0.0
2018-Jun-12 22:54N 33°45' W 118°13'0 0.0
2018-Jun-12 22:23N 33°45' W 118°13'0 0.0
2018-Jun-12 21:55N 33°45' W 118°13'0 0.0
2018-Jun-12 21:28N 33°45' W 118°13'0 0.0
2018-Jun-12 20:59N 33°45' W 118°13'0 0.0
2018-Jun-12 20:25N 33°45' W 118°13'0 0.0
2018-Jun-12 20:00N 33°45' W 118°13'0 0.0
2018-Jun-12 19:28N 33°45' W 118°13'0 0.0
2018-Jun-12 18:48N 33°45' W 118°13'0 0.0
2018-Jun-12 18:28N 33°45' W 118°13'0 0.0
2018-Jun-12 16:38N 33°45' W 118°13'0 0.0
2018-Jun-12 16:23N 33°45' W 118°13'0 0.0
2018-Jun-12 15:58N 33°45' W 118°13'0 0.0
2018-Jun-12 15:29N 33°45' W 118°13'0 0.0
2018-Jun-12 14:06N 33°45' W 118°13'0 0.0
2018-Jun-12 13:54N 33°45' W 118°13'0 0.0
2018-Jun-12 12:31N 33°45' W 118°13'0 0.0
2018-Jun-12 12:18N 33°45' W 118°13'0 0.0
2018-Jun-12 12:01N 33°45' W 118°13'0 0.0
2018-Jun-12 11:30N 33°45' W 118°13'0 0.0
2018-Jun-12 10:57N 33°45' W 118°13'0 0.0
2018-Jun-12 10:30N 33°45' W 118°13'0 0.0
2018-Jun-12 10:01N 33°45' W 118°13'0 0.0
2018-Jun-12 09:23N 33°45' W 118°13'0 0.0
2018-Jun-12 09:00N 33°45' W 118°13'0 0.0
2018-Jun-12 08:28N 33°45' W 118°13'0 0.0
2018-Jun-12 07:59N 33°45' W 118°13'0 0.0
2018-Jun-12 07:21N 33°45' W 118°13'0 0.0
2018-Jun-12 06:44N 33°45' W 118°13'0 0.0
2018-Jun-12 04:55N 33°45' W 118°13'0 0.0
2018-Jun-12 04:06N 33°45' W 118°13'0 0.0
2018-Jun-12 03:58N 33°45' W 118°13'0 0.0
2018-Jun-12 03:23N 33°45' W 118°13'0 0.0
2018-Jun-12 02:45N 33°45' W 118°13'0 0.0
2018-Jun-12 02:26N 33°45' W 118°13'0 0.0
2018-Jun-12 02:00N 33°45' W 118°13'0 0.0
2018-Jun-12 01:26N 33°45' W 118°13'  
Track history (hours):
 
Tides and Currents Weather Stations Pressure Air Temp Water Temp Dewpoint Dewpoint Depression Visibility Wind Speed Wind Dir Waves Ship Positions

Pilot Boat Polaris

Last reported at 2018-Jun-22 01:02 UTC. Time now 2018-Jun-22 09:14 UTC.
Position N 33°45' W 118°13'.

Length 16 m; draft 1.5 m.

Type: Pilot. MMSI: 338037842.

Date/timePositionNaut miles runAvg speedWind from/ knotsBaromVisibWave heightAir tempDewpointWater temp
2018-Jun-22 01:02N 33°45' W 118°13'0 0.0
2018-Jun-21 23:23N 33°45' W 118°13'0 0.0
2018-Jun-21 22:37N 33°45' W 118°13'0 0.0
2018-Jun-21 21:41N 33°45' W 118°13'0 0.0
2018-Jun-21 20:06N 33°45' W 118°13'0 0.0
2018-Jun-21 20:00N 33°45' W 118°13'0 0.0
2018-Jun-21 02:52N 33°45' W 118°13'0 0.0
2018-Jun-21 00:34N 33°45' W 118°13'0 0.0
2018-Jun-20 22:39N 33°45' W 118°13'0 0.0
2018-Jun-20 22:03N 33°45' W 118°13'0 0.0
2018-Jun-20 22:00N 33°45' W 118°13'0 0.0
2018-Jun-20 13:57N 33°45' W 118°13'0 0.0
2018-Jun-20 13:30N 33°45' W 118°13'0 0.0
2018-Jun-20 02:59N 33°45' W 118°13'0 0.0
2018-Jun-20 02:28N 33°45' W 118°13'0 0.0
2018-Jun-20 01:54N 33°45' W 118°13'0 0.0
2018-Jun-20 01:30N 33°45' W 118°13'0 0.0
2018-Jun-20 00:19N 33°45' W 118°13'0 0.0
2018-Jun-19 21:00N 33°45' W 118°13'0 0.0
2018-Jun-19 20:20N 33°45' W 118°13'0 0.0
2018-Jun-19 19:21N 33°45' W 118°13'0 0.0
2018-Jun-19 19:00N 33°45' W 118°13'0 0.0
2018-Jun-19 17:39N 33°45' W 118°13'0 0.0
2018-Jun-19 17:22N 33°45' W 118°13'0 0.0
2018-Jun-19 16:58N 33°45' W 118°13'0 0.0
2018-Jun-19 16:28N 33°45' W 118°13'0 0.0
2018-Jun-18 22:57N 33°45' W 118°13'0 0.0
2018-Jun-18 22:24N 33°45' W 118°13'0 0.0
2018-Jun-18 21:59N 33°45' W 118°13'0 0.0
2018-Jun-18 21:25N 33°45' W 118°13'0 0.0
2018-Jun-18 20:59N 33°45' W 118°13'0 0.0
2018-Jun-18 20:30N 33°45' W 118°13'0 0.0
2018-Jun-18 19:32N 33°45' W 118°13'0 0.0
2018-Jun-18 19:30N 33°45' W 118°13'0 0.0
2018-Jun-18 18:00N 33°45' W 118°13'0 0.0
2018-Jun-18 17:22N 33°45' W 118°13'0 0.0
2018-Jun-18 16:58N 33°45' W 118°13'0 0.0
2018-Jun-18 16:22N 33°45' W 118°13'0 0.0
2018-Jun-18 16:00N 33°45' W 118°13'0 0.0
2018-Jun-18 14:37N 33°45' W 118°13'0 0.0
2018-Jun-18 14:19N 33°45' W 118°13'0 0.0
2018-Jun-18 11:00N 33°45' W 118°13'0 0.0
2018-Jun-18 06:52N 33°45' W 118°13'0 0.0
2018-Jun-18 03:03N 33°45' W 118°13'0 0.0
2018-Jun-18 02:57N 33°45' W 118°13'0 0.0
2018-Jun-18 01:36N 33°45' W 118°13'0 0.0
2018-Jun-18 01:28N 33°45' W 118°13'0 0.0
2018-Jun-18 00:55N 33°45' W 118°13'0 0.0
2018-Jun-18 00:28N 33°45' W 118°13'0 0.0
2018-Jun-17 23:54N 33°45' W 118°13'0 0.0
2018-Jun-17 23:28N 33°45' W 118°13'0 0.0
2018-Jun-17 22:55N 33°45' W 118°13'0 0.0
2018-Jun-17 22:27N 33°45' W 118°13'0 0.0
2018-Jun-17 18:08N 33°45' W 118°13'0 0.0
2018-Jun-17 17:50N 33°45' W 118°13'0 0.0
2018-Jun-17 16:33N 33°45' W 118°13'0 0.0
2018-Jun-17 16:10N 33°45' W 118°13'0 0.0
2018-Jun-17 15:53N 33°45' W 118°13'0 0.0
2018-Jun-17 15:22N 33°45' W 118°13'0 0.0
2018-Jun-17 14:56N 33°45' W 118°13'0 0.0
2018-Jun-17 07:21N 33°45' W 118°13'1 0.1
2018-Jun-17 02:57N 33°44' W 118°13'0 0.5
2018-Jun-17 02:30N 33°44' W 118°12'3 6.0
2018-Jun-17 02:00N 33°42' W 118°11'4 7.2
2018-Jun-17 01:31N 33°45' W 118°13'0 0.3
2018-Jun-17 00:59N 33°45' W 118°13'0 0.0
2018-Jun-17 00:30N 33°45' W 118°13'0 0.8
2018-Jun-17 00:01N 33°45' W 118°13'2 3.5
2018-Jun-16 23:30N 33°44' W 118°12'1 1.8
2018-Jun-16 23:00N 33°43' W 118°11'2 4.5
2018-Jun-16 22:30N 33°45' W 118°13'0 0.0
2018-Jun-16 19:59N 33°45' W 118°13'0 0.0
2018-Jun-16 19:29N 33°45' W 118°13'0 0.0
2018-Jun-16 18:58N 33°45' W 118°13'0 0.0
2018-Jun-16 18:30N 33°45' W 118°13'0 0.0
2018-Jun-16 17:59N 33°45' W 118°13'0 0.0
2018-Jun-16 17:30N 33°45' W 118°13'0 0.0
2018-Jun-16 16:48N 33°45' W 118°13'0 0.0
2018-Jun-16 16:25N 33°45' W 118°13'0 0.0
2018-Jun-16 16:00N 33°45' W 118°13'0 0.0
2018-Jun-16 15:16N 33°45' W 118°13'0 0.0
2018-Jun-16 15:00N 33°45' W 118°13'0 0.0
2018-Jun-16 14:26N 33°45' W 118°13'0 0.0
2018-Jun-16 14:00N 33°45' W 118°13'0 0.0
2018-Jun-16 13:30N 33°45' W 118°13'0 0.0
2018-Jun-16 12:59N 33°45' W 118°13'0 0.0
2018-Jun-16 12:27N 33°45' W 118°13'0 0.0
2018-Jun-16 11:58N 33°45' W 118°13'0 0.0
2018-Jun-16 11:29N 33°45' W 118°13'0 0.0
2018-Jun-16 10:57N 33°45' W 118°13'0 0.0
2018-Jun-16 07:50N 33°45' W 118°13'0 0.0
2018-Jun-16 07:28N 33°45' W 118°13'0 0.0
2018-Jun-16 07:00N 33°45' W 118°13'0 0.0
2018-Jun-16 01:56N 33°45' W 118°13'0 0.0
2018-Jun-16 01:30N 33°45' W 118°13'0 0.0
2018-Jun-16 01:00N 33°45' W 118°13'0 0.0
2018-Jun-16 00:29N 33°45' W 118°13'0 0.0
2018-Jun-16 00:00N 33°45' W 118°13'0 0.0
2018-Jun-15 23:30N 33°45' W 118°13'0 0.0
2018-Jun-15 23:00N 33°45' W 118°13'0 0.0
2018-Jun-15 22:29N 33°45' W 118°13'0 0.0
2018-Jun-15 21:58N 33°45' W 118°13'0 0.0
2018-Jun-15 21:24N 33°45' W 118°13'0 0.0
2018-Jun-15 20:58N 33°45' W 118°13'0 0.0
2018-Jun-15 20:30N 33°45' W 118°13'0 0.0
2018-Jun-15 16:59N 33°45' W 118°13'0 0.0
2018-Jun-15 15:40N 33°45' W 118°13'0 0.0
2018-Jun-15 15:28N 33°45' W 118°13'0 0.0
2018-Jun-15 12:28N 33°45' W 118°13'0 0.0
2018-Jun-15 10:46N 33°45' W 118°13'0 0.0
2018-Jun-15 01:52N 33°45' W 118°13'0 0.0
2018-Jun-15 01:27N 33°45' W 118°13'0 0.0
2018-Jun-15 00:47N 33°45' W 118°13'0 0.0
2018-Jun-15 00:29N 33°45' W 118°13'0 0.0
2018-Jun-15 00:00N 33°45' W 118°13'0 0.0
2018-Jun-14 23:28N 33°45' W 118°13'0 0.0
2018-Jun-14 23:00N 33°45' W 118°13'0 0.0
2018-Jun-14 22:20N 33°45' W 118°13'0 0.0
2018-Jun-14 22:00N 33°45' W 118°13'0 0.0
2018-Jun-14 21:30N 33°45' W 118°13'0 0.0
2018-Jun-14 20:54N 33°45' W 118°13'0 0.0
2018-Jun-14 20:30N 33°45' W 118°13'0 0.0
2018-Jun-14 19:53N 33°45' W 118°13'0 0.0
2018-Jun-14 16:01N 33°45' W 118°13'0 1.4
2018-Jun-14 16:00N 33°45' W 118°13'3 4.5
2018-Jun-14 15:18N 33°44' W 118°17'3 7.8
2018-Jun-14 14:59N 33°44' W 118°13'1 1.3
2018-Jun-14 14:06N 33°45' W 118°13'0 0.0
2018-Jun-14 13:49N 33°45' W 118°13'0 0.0
2018-Jun-14 13:24N 33°45' W 118°13'0 0.0
2018-Jun-14 10:37N 33°45' W 118°13'0 0.0
2018-Jun-14 05:20N 33°45' W 118°13'0 0.0
2018-Jun-14 03:35N 33°45' W 118°13'0 0.0
2018-Jun-14 03:21N 33°45' W 118°13'0 0.0
2018-Jun-14 03:01N 33°45' W 118°13'0 0.0
2018-Jun-14 01:09N 33°45' W 118°13'0 0.0
2018-Jun-14 01:00N 33°45' W 118°13'0 0.0
2018-Jun-14 00:29N 33°45' W 118°13'0 0.0
2018-Jun-13 23:58N 33°45' W 118°13'0 0.0
2018-Jun-13 23:30N 33°45' W 118°13'0 0.0
2018-Jun-13 23:00N 33°45' W 118°13'0 0.0
2018-Jun-13 22:24N 33°45' W 118°13'0 0.0
2018-Jun-13 21:59N 33°45' W 118°13'0 0.0
2018-Jun-13 21:29N 33°45' W 118°13'0 0.0
2018-Jun-13 20:58N 33°45' W 118°13'0 0.0
2018-Jun-13 20:30N 33°45' W 118°13'0 0.0
2018-Jun-13 19:57N 33°45' W 118°13'0 0.0
2018-Jun-13 19:30N 33°45' W 118°13'0 0.0
2018-Jun-13 18:58N 33°45' W 118°13'0 0.0
2018-Jun-13 18:29N 33°45' W 118°13'0 0.0
2018-Jun-13 18:00N 33°45' W 118°13'0 0.0
2018-Jun-13 17:12N 33°45' W 118°13'0 0.0
2018-Jun-13 16:01N 33°45' W 118°13'0 0.0
2018-Jun-13 15:57N 33°45' W 118°13'0 0.0
2018-Jun-13 15:31N 33°45' W 118°13'0 0.0
2018-Jun-13 12:28N 33°45' W 118°13'0 0.0
2018-Jun-13 12:00N 33°45' W 118°13'0 0.0
2018-Jun-13 11:30N 33°45' W 118°13'0 0.0
2018-Jun-13 11:00N 33°45' W 118°13'0 0.0
2018-Jun-13 10:24N 33°45' W 118°13'0 0.0
2018-Jun-13 09:53N 33°45' W 118°13'0 0.0
2018-Jun-13 09:23N 33°45' W 118°13'0 0.0
2018-Jun-13 08:57N 33°45' W 118°13'0 0.0
2018-Jun-13 08:26N 33°45' W 118°13'0 0.0
2018-Jun-13 07:48N 33°45' W 118°13'0 0.0
2018-Jun-13 07:18N 33°45' W 118°13'0 0.0
2018-Jun-13 04:08N 33°45' W 118°13'0 0.0
2018-Jun-13 03:39N 33°45' W 118°13'0 0.0
2018-Jun-13 03:19N 33°45' W 118°13'0 0.0
2018-Jun-13 02:53N 33°45' W 118°13'0 0.0
2018-Jun-13 02:25N 33°45' W 118°13'0 0.0
2018-Jun-13 01:58N 33°45' W 118°13'0 0.0
2018-Jun-13 01:23N 33°45' W 118°13'0 0.0
2018-Jun-13 00:58N 33°45' W 118°13'0 0.0
2018-Jun-13 00:18N 33°45' W 118°13'0 0.0
2018-Jun-12 23:53N 33°45' W 118°13'0 0.0
2018-Jun-12 23:29N 33°45' W 118°13'0 0.0
2018-Jun-12 22:54N 33°45' W 118°13'0 0.0
2018-Jun-12 22:23N 33°45' W 118°13'0 0.0
2018-Jun-12 21:55N 33°45' W 118°13'0 0.0
2018-Jun-12 21:28N 33°45' W 118°13'0 0.0
2018-Jun-12 20:59N 33°45' W 118°13'0 0.0
2018-Jun-12 20:25N 33°45' W 118°13'0 0.0
2018-Jun-12 20:00N 33°45' W 118°13'0 0.0
2018-Jun-12 19:28N 33°45' W 118°13'0 0.0
2018-Jun-12 18:48N 33°45' W 118°13'0 0.0
2018-Jun-12 18:28N 33°45' W 118°13'0 0.0
2018-Jun-12 16:38N 33°45' W 118°13'0 0.0
2018-Jun-12 16:23N 33°45' W 118°13'0 0.0
2018-Jun-12 15:58N 33°45' W 118°13'0 0.0
2018-Jun-12 15:29N 33°45' W 118°13'0 0.0
2018-Jun-12 14:06N 33°45' W 118°13'0 0.0
2018-Jun-12 13:54N 33°45' W 118°13'0 0.0
2018-Jun-12 12:31N 33°45' W 118°13'0 0.0
2018-Jun-12 12:18N 33°45' W 118°13'0 0.0
2018-Jun-12 12:01N 33°45' W 118°13'0 0.0
2018-Jun-12 11:30N 33°45' W 118°13'0 0.0
2018-Jun-12 10:57N 33°45' W 118°13'0 0.0
2018-Jun-12 10:30N 33°45' W 118°13'0 0.0
2018-Jun-12 10:01N 33°45' W 118°13'0 0.0
2018-Jun-12 09:23N 33°45' W 118°13'0 0.0
2018-Jun-12 09:00N 33°45' W 118°13'0 0.0
2018-Jun-12 08:28N 33°45' W 118°13'0 0.0
2018-Jun-12 07:59N 33°45' W 118°13'0 0.0
2018-Jun-12 07:21N 33°45' W 118°13'0 0.0
2018-Jun-12 06:44N 33°45' W 118°13'0 0.0
2018-Jun-12 04:55N 33°45' W 118°13'0 0.0
2018-Jun-12 04:06N 33°45' W 118°13'0 0.0
2018-Jun-12 03:58N 33°45' W 118°13'0 0.0
2018-Jun-12 03:23N 33°45' W 118°13'0 0.0
2018-Jun-12 02:45N 33°45' W 118°13'0 0.0
2018-Jun-12 02:26N 33°45' W 118°13'0 0.0
2018-Jun-12 02:00N 33°45' W 118°13'0 0.0
2018-Jun-12 01:26N 33°45' W 118°13'  

Dump ship's entire track history